Time;durP1;ratioP1;P1;durP2;ratioP2;P2;SDS_P1;SDS_P2;PMS_P1;PMS_P2;Temp;Humidity;BMP_temperature;BMP_pressure;BME280_temperature;BME280_humidity;BME280_pressure;Samples;Min_cycle;Max_cycle;Signal;HPM_P1;HPM_P2
2023/07/10 00:05:58;;;;;;;18.55;6.78;;;20.30;99.90;;;;;;12528835;28;20388;-35
2023/07/10 00:12:01;;;;;;;11.47;5.23;;;20.20;99.90;;;;;;12544607;28;20052;-35
2023/07/10 00:18:14;;;;;;;8.63;5.10;;;20.30;99.90;;;;;;12510309;28;20046;-34
2023/07/10 00:24:16;;;;;;;12.63;6.13;;;20.30;99.90;;;;;;12535403;28;20049;-34
2023/07/10 00:30:23;;;;;;;14.60;6.55;;;20.30;99.90;;;;;;12508538;28;20048;-34
2023/07/10 00:36:30;;;;;;;17.08;9.00;;;20.20;99.90;;;;;;12502895;28;20049;-34
2023/07/10 00:42:32;;;;;;;14.13;9.88;;;20.00;99.90;;;;;;12520053;28;20401;-34
2023/07/10 00:48:45;;;;;;;15.05;9.75;;;20.00;99.90;;;;;;12521441;28;20485;-34
2023/07/10 00:54:50;;;;;;;17.40;9.77;;;20.10;99.90;;;;;;12516605;28;20060;-34
2023/07/10 01:01:04;;;;;;;11.43;7.03;;;20.10;99.90;;;;;;12520243;28;20049;-35
2023/07/10 01:07:10;;;;;;;11.52;6.63;;;20.00;99.90;;;;;;12526865;28;20098;-34
2023/07/10 01:13:12;;;;;;;13.73;6.45;;;20.00;99.90;;;;;;12501509;28;20088;-35
2023/07/10 01:19:18;;;;;;;13.48;5.85;;;20.00;99.90;;;;;;12530169;28;20057;-35
2023/07/10 01:25:20;;;;;;;11.07;6.88;;;20.20;99.90;;;;;;12532941;28;20049;-35
2023/07/10 01:31:24;;;;;;;12.25;6.82;;;20.20;99.90;;;;;;12514824;28;20048;-35
2023/07/10 01:37:26;;;;;;;;;;;20.20;99.90;;;;;;12525787;28;20863;-35
2023/07/10 01:43:28;;;;;;;12.93;9.30;;;20.20;99.90;;;;;;12542476;28;19928;-34
2023/07/10 01:49:36;;;;;;;16.00;9.38;;;20.20;99.90;;;;;;12515286;28;20134;-35
2023/07/10 01:55:45;;;;;;;16.58;9.73;;;20.10;99.90;;;;;;12516935;28;20068;-35
2023/07/10 02:01:47;;;;;;;17.15;10.63;;;20.20;99.90;;;;;;12510550;28;20041;-34
2023/07/10 02:07:49;;;;;;;16.15;12.57;;;20.20;99.90;;;;;;12508226;28;20416;-35
2023/07/10 02:13:51;;;;;;;17.77;13.52;;;20.20;99.90;;;;;;12512818;28;20061;-35
2023/07/10 02:19:53;;;;;;;23.23;15.90;;;20.20;99.90;;;;;;12539188;28;20069;-35
2023/07/10 02:25:56;;;;;;;22.88;16.45;;;20.10;99.90;;;;;;12511692;28;20067;-34
2023/07/10 02:31:59;;;;;;;24.85;17.08;;;20.10;99.90;;;;;;12510460;28;20057;-35
2023/07/10 02:38:01;;;;;;;24.33;16.08;;;20.10;99.90;;;;;;12511435;28;20180;-35
2023/07/10 02:44:03;;;;;;;20.45;16.30;;;20.00;99.90;;;;;;12511350;28;20053;-35
2023/07/10 02:50:09;;;;;;;22.50;15.93;;;20.00;99.90;;;;;;12516465;28;20579;-35
2023/07/10 02:56:10;;;;;;;21.17;15.85;;;19.90;99.90;;;;;;12482096;28;20493;-34
2023/07/10 03:02:12;;;;;;;24.13;16.70;;;19.80;99.90;;;;;;12499077;28;20049;-34
2023/07/10 03:08:14;;;;;;;25.55;18.00;;;19.80;99.90;;;;;;12503191;28;20632;-34
2023/07/10 03:14:16;;;;;;;24.10;16.85;;;19.80;99.90;;;;;;12514830;28;20097;-34
2023/07/10 03:20:19;;;;;;;24.55;17.77;;;19.90;99.90;;;;;;12526252;28;20391;-34
2023/07/10 03:26:21;;;;;;;27.90;19.30;;;19.80;99.90;;;;;;12498094;28;20064;-34
2023/07/10 03:32:23;;;;;;;27.20;18.48;;;19.70;99.90;;;;;;12519895;28;20045;-34
2023/07/10 03:38:25;;;;;;;39.72;19.98;;;19.60;99.90;;;;;;12506984;28;20049;-34
2023/07/10 03:44:27;;;;;;;28.63;20.70;;;19.50;99.90;;;;;;12509580;28;20084;-34
2023/07/10 03:50:28;;;;;;;29.67;21.52;;;19.30;99.90;;;;;;12524054;28;20437;-34
2023/07/10 03:56:30;;;;;;;32.13;22.15;;;19.20;99.90;;;;;;12525847;28;20379;-34
2023/07/10 04:02:32;;;;;;;29.02;21.35;;;19.30;99.90;;;;;;12489818;28;20146;-34
2023/07/10 04:08:37;;;;;;;36.53;23.92;;;19.20;99.90;;;;;;12514550;28;20451;-35
2023/07/10 04:14:39;;;;;;;36.15;24.45;;;19.20;99.90;;;;;;12528049;28;20057;-35
2023/07/10 04:20:42;;;;;;;37.20;24.67;;;19.00;99.90;;;;;;12491498;28;20148;-34
2023/07/10 04:26:44;;;;;;;37.65;26.23;;;19.10;99.90;;;;;;12517932;28;20049;-35
2023/07/10 04:32:46;;;;;;;40.17;26.58;;;19.00;99.90;;;;;;12501867;28;20057;-34
2023/07/10 04:38:48;;;;;;;33.95;24.15;;;19.10;99.90;;;;;;12505555;28;20084;-35
2023/07/10 04:44:50;;;;;;;41.63;26.80;;;19.00;99.90;;;;;;12506349;28;20140;-35
2023/07/10 04:50:54;;;;;;;37.85;24.52;;;19.00;99.90;;;;;;12515851;28;20088;-35
2023/07/10 04:56:56;;;;;;;;;;;19.00;99.90;;;;;;12520679;28;20065;-34
2023/07/10 05:03:00;;;;;;;33.78;22.17;;;19.00;99.90;;;;;;12496967;28;20372;-34
2023/07/10 05:09:02;;;;;;;40.47;25.23;;;19.00;99.90;;;;;;12520723;28;20179;-34
2023/07/10 05:15:04;;;;;;;42.90;25.90;;;19.00;99.90;;;;;;12515203;28;20045;-34
2023/07/10 05:21:07;;;;;;;40.67;25.20;;;19.00;99.90;;;;;;12492805;28;20069;-35
2023/07/10 05:27:09;;;;;;;39.92;26.17;;;18.90;99.90;;;;;;12513804;28;20488;-34
2023/07/10 05:33:11;;;;;;;42.78;26.40;;;18.90;99.90;;;;;;12523621;28;20052;-35
2023/07/10 05:39:13;;;;;;;47.72;27.45;;;18.90;99.90;;;;;;12491497;28;20052;-35
2023/07/10 05:45:15;;;;;;;37.58;22.08;;;18.90;99.90;;;;;;12501919;28;20046;-34
2023/07/10 05:51:17;;;;;;;40.00;23.20;;;19.00;99.90;;;;;;12514460;28;20563;-35
2023/07/10 05:57:19;;;;;;;42.38;26.63;;;18.80;99.90;;;;;;12519215;28;20109;-34
2023/07/10 06:03:20;;;;;;;40.63;25.63;;;18.80;99.90;;;;;;12504611;28;20044;-34
2023/07/10 06:09:23;;;;;;;31.92;21.02;;;18.70;99.90;;;;;;12531380;28;20123;-34
2023/07/10 06:15:25;;;;;;;28.50;20.77;;;18.60;99.90;;;;;;12524261;28;20053;-34
2023/07/10 06:21:28;;;;;;;30.95;22.17;;;18.50;99.90;;;;;;12511925;28;20497;-33
2023/07/10 06:27:30;;;;;;;31.30;21.05;;;18.50;99.90;;;;;;12511624;28;20081;-34
2023/07/10 06:33:33;;;;;;;34.83;21.25;;;18.50;99.90;;;;;;12513167;28;20096;-34
2023/07/10 06:39:35;;;;;;;33.55;20.95;;;18.50;99.90;;;;;;12524688;28;20136;-35
2023/07/10 06:45:38;;;;;;;27.95;20.75;;;18.40;99.90;;;;;;12511490;28;20136;-34
2023/07/10 06:51:40;;;;;;;26.60;19.73;;;18.50;99.90;;;;;;12516014;28;20417;-35
2023/07/10 06:57:43;;;;;;;28.60;19.33;;;18.60;99.90;;;;;;12527166;28;20050;-34
2023/07/10 07:03:45;;;;;;;23.38;15.52;;;18.70;99.90;;;;;;12518921;28;20080;-34
2023/07/10 07:09:47;;;;;;;17.02;12.40;;;18.80;99.90;;;;;;12527864;28;20418;-34
2023/07/10 07:15:50;;;;;;;20.27;13.40;;;18.90;99.90;;;;;;12521197;28;20053;-34
2023/07/10 07:21:52;;;;;;;15.07;10.07;;;18.90;99.90;;;;;;12539520;28;20056;-34
2023/07/10 07:27:54;;;;;;;17.25;9.10;;;18.80;99.90;;;;;;12533609;28;20798;-40
2023/07/10 07:33:56;;;;;;;9.68;5.90;;;19.00;99.90;;;;;;12504934;28;20057;-35
2023/07/10 07:40:00;;;;;;;12.05;5.70;;;19.00;99.90;;;;;;12511900;28;20057;-35
2023/07/10 07:46:02;;;;;;;8.43;5.70;;;19.00;99.90;;;;;;12496812;28;20132;-34
2023/07/10 07:52:05;;;;;;;9.50;6.20;;;19.10;99.90;;;;;;12510967;28;20049;-34
2023/07/10 07:58:07;;;;;;;13.80;5.72;;;19.00;99.90;;;;;;12504008;28;20106;-35
2023/07/10 08:04:09;;;;;;;8.45;5.13;;;19.00;99.90;;;;;;12496923;28;20546;-34
2023/07/10 08:10:11;;;;;;;9.18;5.50;;;19.10;99.90;;;;;;12528408;28;20121;-34
2023/07/10 08:16:13;;;;;;;11.45;5.47;;;19.20;99.90;;;;;;12521077;28;20057;-35
2023/07/10 08:22:15;;;;;;;8.13;4.90;;;19.10;99.90;;;;;;12499586;28;20512;-34
2023/07/10 08:28:17;;;;;;;8.32;5.68;;;19.30;99.90;;;;;;12519414;28;20056;-34
2023/07/10 08:34:19;;;;;;;7.85;4.30;;;19.50;99.90;;;;;;12513608;28;20046;-33
2023/07/10 08:40:31;;;;;;;5.95;3.25;;;19.90;99.90;;;;;;12513369;28;20146;-34
2023/07/10 08:46:33;;;;;;;6.90;3.10;;;20.10;99.90;;;;;;12526146;28;20076;-35
2023/07/10 08:52:59;;;;;;;6.25;3.03;;;20.20;99.90;;;;;;12527550;28;20075;-34
2023/07/10 08:59:14;;;;;;;7.47;3.47;;;20.40;99.90;;;;;;12504896;28;20053;-34
2023/07/10 09:05:26;;;;;;;5.40;3.10;;;20.50;99.90;;;;;;12512122;28;20048;-34
2023/07/10 09:11:28;;;;;;;7.35;4.72;;;20.50;99.90;;;;;;12514436;28;20076;-34
2023/07/10 09:17:33;;;;;;;10.57;6.97;;;20.50;99.90;;;;;;12522821;28;20111;-34
2023/07/10 09:23:35;;;;;;;9.40;6.05;;;20.70;99.90;;;;;;12491583;28;20049;-34
2023/07/10 09:29:38;;;;;;;7.35;5.88;;;20.70;99.90;;;;;;12497046;28;20104;-34
2023/07/10 09:35:42;;;;;;;8.40;5.00;;;20.80;99.90;;;;;;12509453;28;20099;-34
2023/07/10 09:41:46;;;;;;;9.02;4.55;;;21.10;99.90;;;;;;12481695;28;20041;-34
2023/07/10 09:47:50;;;;;;;5.35;3.63;;;21.50;99.90;;;;;;12527302;28;20049;-34
2023/07/10 09:54:02;;;;;;;7.07;3.00;;;21.70;99.90;;;;;;12512973;28;20049;-34
2023/07/10 10:00:04;;;;;;;8.00;3.33;;;21.90;99.90;;;;;;12513591;28;20117;-35
2023/07/10 10:06:19;;;;;;;5.00;2.88;;;22.10;99.90;;;;;;12515718;28;20123;-34
2023/07/10 10:12:29;;;;;;;5.80;2.55;;;22.70;99.90;;;;;;12517533;28;20052;-34
2023/07/10 10:18:45;;;;;;;4.15;1.98;;;22.60;99.90;;;;;;12514345;28;20049;-41
2023/07/10 10:24:48;;;;;;;4.68;1.50;;;22.60;99.90;;;;;;12505303;28;20037;-34
2023/07/10 10:31:01;;;;;;;5.03;1.50;;;22.40;99.90;;;;;;12517356;28;20041;-33
2023/07/10 10:37:38;;;;;;;2.95;1.40;;;22.00;99.90;;;;;;12508667;28;20106;-34
2023/07/10 10:44:09;;;;;;;6.95;1.60;;;22.10;99.90;;;;;;12518206;28;20045;-35
2023/07/10 10:50:28;;;;;;;4.53;1.67;;;22.50;99.90;;;;;;12513391;28;21557;-34
2023/07/10 10:56:36;;;;;;;5.00;1.60;;;22.70;99.90;;;;;;12532409;28;20053;-35
2023/07/10 11:02:58;;;;;;;6.90;1.65;;;23.20;99.90;;;;;;12517075;28;20069;-34
2023/07/10 11:09:11;;;;;;;4.75;1.63;;;23.20;99.90;;;;;;12513542;28;20051;-34
2023/07/10 11:15:18;;;;;;;3.78;1.70;;;23.40;99.90;;;;;;12519933;28;20409;-35
2023/07/10 11:21:21;;;;;;;4.80;1.77;;;23.60;99.90;;;;;;12511444;28;20739;-34
2023/07/10 11:27:27;;;;;;;3.15;1.50;;;23.30;99.90;;;;;;12529214;28;20059;-34
2023/07/10 11:33:29;;;;;;;3.17;1.30;;;23.60;99.90;;;;;;12509058;28;20199;-34
2023/07/10 11:39:34;;;;;;;5.97;1.60;;;23.60;99.90;;;;;;12520630;28;20103;-35
2023/07/10 11:45:44;;;;;;;5.97;1.73;;;24.10;99.90;;;;;;12512703;28;20045;-34
2023/07/10 11:52:18;;;;;;;5.50;1.73;;;24.10;99.90;;;;;;12518711;28;20156;-35
2023/07/10 11:58:28;;;;;;;3.40;1.30;;;24.20;99.90;;;;;;12529034;28;20049;-35
2023/07/10 12:04:30;;;;;;;5.03;1.50;;;23.50;99.90;;;;;;12507076;28;20045;-34
2023/07/10 12:10:46;;;;;;;4.82;1.15;;;23.20;99.90;;;;;;12516170;28;20050;-35
2023/07/10 12:16:57;;;;;;;4.85;1.70;;;23.50;99.90;;;;;;12533279;28;20114;-35
2023/07/10 12:23:20;;;;;;;5.45;1.95;;;23.80;99.90;;;;;;12507056;28;20041;-35
2023/07/10 12:29:22;;;;;;;5.53;1.50;;;24.10;99.90;;;;;;12525856;28;20103;-34
2023/07/10 12:35:37;;;;;;;3.47;1.40;;;24.20;99.90;;;;;;12501940;28;20103;-35
2023/07/10 12:41:46;;;;;;;3.72;1.40;;;24.50;99.90;;;;;;12509803;28;20045;-34
2023/07/10 12:48:12;;;;;;;4.18;1.60;;;24.10;99.90;;;;;;12505966;28;20521;-35
2023/07/10 12:54:27;;;;;;;4.45;1.35;;;23.80;99.90;;;;;;12542140;28;20056;-35
2023/07/10 13:00:59;;;;;;;3.55;1.20;;;23.50;99.90;;;;;;12507762;28;20049;-35
2023/07/10 13:07:03;;;;;;;4.13;1.23;;;23.60;99.90;;;;;;12522260;28;20485;-35
2023/07/10 13:13:27;;;;;;;4.03;1.20;;;24.40;99.90;;;;;;12511055;28;20468;-35
2023/07/10 13:19:32;;;;;;;4.32;1.23;;;24.70;99.90;;;;;;12536859;28;20044;-35
2023/07/10 13:25:34;;;;;;;2.92;1.10;;;24.90;99.90;;;;;;12513670;28;20045;-35
2023/07/10 13:31:36;;;;;;;3.03;1.10;;;25.30;99.90;;;;;;12534955;28;20048;-35
2023/07/10 13:37:38;;;;;;;3.60;1.30;;;25.20;99.90;;;;;;12500693;28;20053;-35
2023/07/10 13:43:41;;;;;;;6.00;1.38;;;24.70;99.90;;;;;;12490302;28;20102;-34
2023/07/10 13:49:44;;;;;;;4.78;1.02;;;24.10;99.90;;;;;;12507278;28;20041;-35
2023/07/10 13:55:48;;;;;;;;;;;23.70;99.90;;;;;;12528363;28;20104;-35
2023/07/10 14:01:50;;;;;;;4.18;1.25;;;23.70;99.90;;;;;;12503393;28;19927;-35
2023/07/10 14:07:53;;;;;;;4.75;1.70;;;23.80;99.90;;;;;;12528381;28;20049;-35
2023/07/10 14:13:55;;;;;;;3.40;1.30;;;23.70;99.90;;;;;;12506805;28;20041;-35
2023/07/10 14:19:57;;;;;;;4.00;1.70;;;23.80;99.90;;;;;;12503770;28;20048;-35
2023/07/10 14:25:59;;;;;;;5.53;1.43;;;24.10;99.90;;;;;;12511820;28;20175;-35
2023/07/10 14:32:11;;;;;;;4.13;1.13;;;24.60;99.90;;;;;;12522277;28;20140;-35
2023/07/10 14:38:24;;;;;;;5.43;1.33;;;24.30;99.90;;;;;;12498269;28;20087;-35
2023/07/10 14:44:26;;;;;;;6.32;1.20;;;24.60;99.90;;;;;;12509997;28;20041;-35
2023/07/10 14:50:28;;;;;;;2.70;1.08;;;24.80;99.90;;;;;;12508405;28;20421;-35
2023/07/10 14:56:30;;;;;;;2.90;1.27;;;24.20;99.90;;;;;;12516659;28;20115;-35
2023/07/10 15:02:32;;;;;;;6.88;1.33;;;24.50;99.90;;;;;;12518678;28;20095;-35
2023/07/10 15:08:38;;;;;;;5.65;1.30;;;24.90;99.90;;;;;;12524433;28;20048;-35
2023/07/10 15:14:40;;;;;;;5.03;1.27;;;24.80;99.90;;;;;;12534172;28;20053;-35
2023/07/10 15:20:43;;;;;;;6.13;1.10;;;24.50;99.90;;;;;;12518198;28;20056;-35
2023/07/10 15:26:45;;;;;;;;;;;24.30;99.90;;;;;;12516256;28;20361;-35
2023/07/10 15:32:47;;;;;;;6.47;1.45;;;24.10;99.90;;;;;;12527869;28;20430;-35
2023/07/10 15:38:49;;;;;;;4.57;1.37;;;24.00;99.90;;;;;;12511439;28;20053;-35
2023/07/10 15:44:51;;;;;;;2.92;1.05;;;24.30;99.90;;;;;;12528023;28;20413;-34
2023/07/10 15:50:55;;;;;;;5.68;1.58;;;24.80;99.90;;;;;;12511214;28;20052;-35
2023/07/10 15:56:57;;;;;;;5.88;1.60;;;24.90;99.90;;;;;;12539671;28;20055;-34
2023/07/10 16:02:59;;;;;;;3.90;1.20;;;24.60;99.90;;;;;;12506876;28;20138;-35
2023/07/10 16:09:08;;;;;;;3.65;1.10;;;24.30;99.90;;;;;;12537423;28;20041;-34
2023/07/10 16:15:21;;;;;;;4.60;1.30;;;24.60;99.90;;;;;;12531078;28;20056;-34
2023/07/10 16:21:24;;;;;;;;;;;24.70;99.90;;;;;;12517982;28;20115;-34
2023/07/10 16:27:26;;;;;;;4.95;1.20;;;24.30;99.90;;;;;;12516539;28;20389;-35
2023/07/10 16:33:29;;;;;;;5.97;1.60;;;24.40;99.90;;;;;;12505054;28;20134;-34
2023/07/10 16:39:31;;;;;;;4.88;1.20;;;24.50;99.90;;;;;;12514601;28;20057;-35
2023/07/10 16:45:33;;;;;;;4.80;1.20;;;25.00;99.90;;;;;;12522544;28;20049;-36
2023/07/10 16:51:35;;;;;;;5.38;1.20;;;25.40;99.90;;;;;;12530247;28;20053;-36
2023/07/10 16:57:37;;;;;;;3.47;1.20;;;25.60;99.90;;;;;;12525535;28;20053;-35
2023/07/10 17:03:40;;;;;;;5.22;1.30;;;25.70;99.90;;;;;;12526553;28;20436;-36
2023/07/10 17:09:43;;;;;;;3.65;1.33;;;25.60;99.90;;;;;;12515691;28;20053;-36
2023/07/10 17:15:47;;;;;;;6.00;1.42;;;25.60;99.90;;;;;;12501910;28;20045;-36
2023/07/10 17:21:50;;;;;;;4.82;1.50;;;25.40;99.90;;;;;;12492447;28;20095;-36
2023/07/10 17:27:52;;;;;;;;;;;25.70;99.90;;;;;;12491183;28;20092;-36
2023/07/10 17:33:56;;;;;;;3.75;1.23;;;25.50;99.90;;;;;;12502189;28;19932;-36
2023/07/10 17:39:57;;;;;;;4.30;1.20;;;25.80;99.90;;;;;;12483205;28;20076;-36
2023/07/10 17:46:05;;;;;;;4.05;1.25;;;26.20;99.90;;;;;;12527028;28;20083;-36
2023/07/10 17:52:11;;;;;;;4.85;1.30;;;25.40;99.90;;;;;;12523299;28;20131;-36
2023/07/10 17:58:22;;;;;;;6.35;1.40;;;25.50;99.90;;;;;;12522057;28;20057;-36
2023/07/10 18:04:26;;;;;;;8.88;1.77;;;25.90;99.90;;;;;;12524472;28;20041;-36
2023/07/10 18:10:28;;;;;;;5.05;1.60;;;25.60;99.90;;;;;;12527488;28;20045;-37
2023/07/10 18:16:30;;;;;;;4.03;1.25;;;25.80;99.90;;;;;;12513856;28;20501;-36
2023/07/10 18:22:41;;;;;;;3.17;1.13;;;25.10;99.90;;;;;;12498786;28;20444;-36
2023/07/10 18:28:46;;;;;;;5.20;1.30;;;24.60;99.90;;;;;;12545573;28;20393;-35
2023/07/10 18:34:52;;;;;;;3.60;1.25;;;24.20;99.90;;;;;;12504999;28;20114;-36
2023/07/10 18:40:56;;;;;;;5.57;1.17;;;23.90;99.90;;;;;;12524661;28;20052;-36
2023/07/10 18:46:58;;;;;;;4.22;1.40;;;23.80;99.90;;;;;;12514222;28;20095;-35
2023/07/10 18:53:00;;;;;;;4.10;1.42;;;23.70;99.90;;;;;;12543663;28;20545;-35
2023/07/10 18:59:02;;;;;;;4.38;1.10;;;23.70;99.90;;;;;;12540094;28;20071;-35
2023/07/10 19:05:04;;;;;;;4.47;1.40;;;23.60;99.90;;;;;;12525308;28;20052;-35
2023/07/10 19:11:06;;;;;;;4.03;1.38;;;23.20;99.90;;;;;;12531809;28;20049;-35
2023/07/10 19:17:16;;;;;;;4.35;1.80;;;23.20;99.90;;;;;;12530602;28;20107;-35
2023/07/10 19:23:23;;;;;;;4.10;1.50;;;23.10;99.90;;;;;;12514643;28;20049;-35
2023/07/10 19:29:25;;;;;;;5.43;1.50;;;23.00;99.90;;;;;;12520657;28;20583;-35
2023/07/10 19:35:27;;;;;;;5.00;1.58;;;22.70;99.90;;;;;;12503111;28;20162;-35
2023/07/10 19:41:29;;;;;;;3.92;1.25;;;22.40;99.90;;;;;;12511764;28;20054;-35
2023/07/10 19:47:31;;;;;;;4.53;1.30;;;22.30;99.90;;;;;;12512508;28;20050;-35
2023/07/10 19:53:34;;;;;;;2.92;1.30;;;21.90;99.90;;;;;;12528747;28;20171;-35
2023/07/10 19:59:37;;;;;;;9.75;2.22;;;21.70;99.90;;;;;;12498320;28;20118;-35
2023/07/10 20:05:39;;;;;;;5.68;1.65;;;21.40;99.90;;;;;;12518340;28;20056;-35
2023/07/10 20:11:41;;;;;;;4.05;1.40;;;21.30;99.90;;;;;;12520392;28;20041;-35
2023/07/10 20:17:46;;;;;;;6.65;1.80;;;21.40;99.90;;;;;;12524451;28;20162;-35
2023/07/10 20:23:51;;;;;;;6.30;1.50;;;21.20;99.90;;;;;;12510130;28;20060;-35
2023/07/10 20:29:53;;;;;;;4.45;1.33;;;21.00;99.90;;;;;;12517140;28;20140;-35
2023/07/10 20:35:59;;;;;;;3.92;1.20;;;20.80;99.90;;;;;;12509279;28;20064;-35
2023/07/10 20:42:02;;;;;;;3.63;1.58;;;20.70;99.90;;;;;;12510625;28;20049;-35
2023/07/10 20:48:07;;;;;;;4.05;1.48;;;20.70;99.90;;;;;;12538247;28;20171;-35
2023/07/10 20:54:17;;;;;;;6.10;1.95;;;20.60;99.90;;;;;;12521865;28;20122;-35
2023/07/10 21:00:19;;;;;;;4.82;1.58;;;20.40;99.90;;;;;;12516170;28;20060;-35
2023/07/10 21:06:25;;;;;;;3.30;1.25;;;20.40;99.90;;;;;;12497998;28;20071;-35
2023/07/10 21:12:29;;;;;;;4.88;1.60;;;20.20;99.90;;;;;;12513143;28;20545;-35
2023/07/10 21:18:31;;;;;;;8.18;1.58;;;19.90;99.90;;;;;;12524928;28;20102;-35
2023/07/10 21:24:33;;;;;;;5.60;1.60;;;19.90;99.90;;;;;;12523191;28;20095;-35
2023/07/10 21:30:35;;;;;;;5.18;1.50;;;19.90;99.90;;;;;;12508024;28;20772;-35
2023/07/10 21:36:38;;;;;;;5.40;1.40;;;19.90;99.90;;;;;;12520521;28;20053;-35
2023/07/10 21:42:39;;;;;;;4.97;1.40;;;19.80;99.90;;;;;;12510997;28;20045;-35
2023/07/10 21:48:41;;;;;;;3.83;1.25;;;19.70;99.90;;;;;;12515899;28;20489;-35
2023/07/10 21:54:43;;;;;;;4.97;1.27;;;19.60;99.90;;;;;;12520008;28;20556;-34
2023/07/10 22:00:45;;;;;;;4.90;1.73;;;19.40;99.90;;;;;;12482476;28;20401;-35
2023/07/10 22:06:48;;;;;;;4.57;1.30;;;19.20;99.90;;;;;;12524028;28;20136;-35
2023/07/10 22:12:53;;;;;;;5.30;1.02;;;19.30;99.90;;;;;;12527567;28;20080;-35
2023/07/10 22:18:57;;;;;;;5.28;1.55;;;19.30;99.90;;;;;;12550694;28;20053;-35
2023/07/10 22:24:59;;;;;;;4.32;1.00;;;19.30;99.90;;;;;;12511021;28;20136;-35
2023/07/10 22:31:03;;;;;;;3.03;1.25;;;19.30;99.90;;;;;;12530321;28;20068;-35
2023/07/10 22:37:05;;;;;;;5.13;1.70;;;19.20;99.90;;;;;;12512775;28;20527;-34
2023/07/10 22:43:13;;;;;;;4.63;1.10;;;19.20;99.90;;;;;;12517517;28;20104;-35
2023/07/10 22:49:16;;;;;;;3.78;1.23;;;19.20;99.90;;;;;;12508692;28;20180;-34
2023/07/10 22:55:18;;;;;;;4.40;1.17;;;19.10;99.90;;;;;;12530731;28;20136;-34
2023/07/10 23:01:21;;;;;;;3.65;1.10;;;19.00;99.90;;;;;;12533847;28;20072;-35
2023/07/10 23:07:23;;;;;;;8.55;2.13;;;19.00;99.90;;;;;;12537350;28;20045;-35
2023/07/10 23:13:27;;;;;;;4.05;1.10;;;19.00;99.90;;;;;;12520787;28;20091;-35
2023/07/10 23:19:29;;;;;;;7.32;1.45;;;19.00;99.90;;;;;;12520338;28;20183;-35
2023/07/10 23:25:31;;;;;;;3.78;1.10;;;18.70;99.90;;;;;;12516127;28;20076;-35
2023/07/10 23:31:38;;;;;;;2.80;0.93;;;18.70;99.90;;;;;;12528967;28;20135;-34
2023/07/10 23:37:41;;;;;;;5.10;1.08;;;18.80;99.90;;;;;;12500796;28;20048;-35
2023/07/10 23:43:43;;;;;;;3.08;1.20;;;18.80;99.90;;;;;;12525973;28;20084;-35
2023/07/10 23:49:45;;;;;;;5.32;1.35;;;18.80;99.90;;;;;;12527857;28;20070;-34
2023/07/10 23:55:47;;;;;;;4.93;1.17;;;18.80;99.90;;;;;;12537976;28;20081;-34
